Time;durP1;ratioP1;P1;durP2;ratioP2;P2;SDS_P1;SDS_P2;PMS_P1;PMS_P2;Temp;Humidity;BMP_temperature;BMP_pressure;BME280_temperature;BME280_humidity;BME280_pressure;Samples;Min_cycle;Max_cycle;Signal;HPM_P1;HPM_P2
2022/01/16 00:00:47;;;;;;;14.97;10.37;;;;;;;2.85;87.15;101533.81;5007926;28;20762;-71
2022/01/16 00:05:58;;;;;;;13.70;10.13;;;;;;;2.83;87.04;101534.72;5000566;28;20714;-71
2022/01/16 00:08:24;;;;;;;14.17;10.93;;;;;;;2.78;87.05;101532.16;5003052;28;20207;-71
2022/01/16 00:10:51;;;;;;;16.80;10.33;;;;;;;2.77;86.65;101531.28;4998356;28;20455;-71
2022/01/16 00:13:19;;;;;;;15.93;10.70;;;;;;;2.75;86.29;101514.66;5001073;28;20658;-71
2022/01/16 00:15:46;;;;;;;14.33;10.53;;;;;;;2.74;86.89;101491.88;5002224;28;20221;-71
2022/01/16 00:18:21;;;;;;;21.13;10.83;;;;;;;2.73;86.71;101497.16;5003942;28;20207;-72
2022/01/16 00:20:49;;;;;;;15.00;10.23;;;;;;;2.70;87.14;101502.47;5013643;28;20203;-71
2022/01/16 00:23:23;;;;;;;16.47;10.63;;;;;;;2.68;86.97;101493.78;5002064;28;20552;-71
2022/01/16 00:25:50;;;;;;;15.40;10.27;;;;;;;2.64;86.02;101508.72;5016640;28;20229;-71
2022/01/16 00:28:16;;;;;;;17.23;10.77;;;;;;;2.59;86.50;101507.94;5009101;28;20200;-71
2022/01/16 00:30:44;;;;;;;15.77;10.70;;;;;;;2.56;86.60;101509.75;5008474;28;20715;-72
2022/01/16 00:33:11;;;;;;;16.77;10.93;;;;;;;2.54;86.18;101496.63;5009936;28;20206;-72
2022/01/16 00:35:38;;;;;;;19.77;11.80;;;;;;;2.56;86.73;101501.84;5010747;28;20231;-72
2022/01/16 00:38:05;;;;;;;17.93;11.33;;;;;;;2.55;87.07;101521.16;4999541;28;20238;-72
2022/01/16 00:40:32;;;;;;;17.50;11.13;;;;;;;2.55;86.81;101503.63;5002683;28;20208;-72
2022/01/16 00:42:58;;;;;;;20.73;11.30;;;;;;;2.54;86.80;101490.50;5005946;28;20219;-71
2022/01/16 00:45:25;;;;;;;19.03;11.20;;;;;;;2.53;86.58;101479.09;5011966;28;20223;-71
2022/01/16 00:47:53;;;;;;;18.50;12.20;;;;;;;2.52;87.49;101465.97;5006651;28;20214;-71
2022/01/16 00:50:19;;;;;;;17.47;11.67;;;;;;;2.50;87.08;101468.66;5005787;28;20223;-71
2022/01/16 00:52:46;;;;;;;19.37;11.60;;;;;;;2.48;87.16;101469.59;5009436;28;20210;-70
2022/01/16 00:55:12;;;;;;;21.73;12.20;;;;;;;2.46;87.36;101452.97;5007187;28;20214;-70
2022/01/16 00:57:39;;;;;;;21.43;12.40;;;;;;;2.42;87.63;101465.28;5004563;28;20218;-70
2022/01/16 01:00:07;;;;;;;20.47;12.07;;;;;;;2.40;86.92;101454.78;5002229;28;20202;-70
2022/01/16 01:02:33;;;;;;;21.63;12.73;;;;;;;2.39;86.97;101444.31;5010381;28;20218;-69
2022/01/16 01:05:01;;;;;;;23.47;12.50;;;;;;;2.37;86.76;101444.31;5015205;28;20223;-69
2022/01/16 01:07:27;;;;;;;19.87;12.43;;;;;;;2.34;87.32;101461.91;5017641;28;20728;-69
2022/01/16 01:09:54;;;;;;;21.93;12.17;;;;;;;2.31;87.30;101439.19;5004559;28;20707;-69
2022/01/16 01:12:28;;;;;;;24.97;13.07;;;;;;;2.29;87.39;101425.19;5016974;28;20211;-69
2022/01/16 01:15:07;;;;;;;21.10;12.50;;;;;;;2.28;87.68;101426.09;5027162;28;20218;-69
2022/01/16 01:17:37;;;;;;;25.37;11.87;;;;;;;2.25;88.09;101414.75;5016661;28;20697;-69
2022/01/16 01:20:07;;;;;;;21.87;12.77;;;;;;;2.23;88.07;101411.28;5008635;28;20591;-69
2022/01/16 01:22:33;;;;;;;17.83;10.97;;;;;;;2.21;88.14;101402.56;5015095;28;20210;-69
2022/01/16 01:25:00;;;;;;;24.80;13.40;;;;;;;2.18;88.34;101405.22;5009837;28;20216;-71
2022/01/16 01:27:31;;;;;;;25.90;12.93;;;;;;;2.18;88.25;101424.50;5006199;28;20563;-70
2022/01/16 01:30:01;;;;;;;22.40;12.67;;;;;;;2.17;87.97;101416.63;5008773;28;20218;-70
2022/01/16 01:32:28;;;;;;;26.63;13.87;;;;;;;2.17;88.23;101424.50;5016973;28;20289;-69
2022/01/16 01:34:54;;;;;;;23.37;12.67;;;;;;;2.15;88.04;101435.06;5013871;28;20217;-70
2022/01/16 01:37:22;;;;;;;19.30;11.50;;;;;;;2.13;88.95;101418.47;5009154;28;20759;-70
2022/01/16 01:39:49;;;;;;;23.17;11.70;;;;;;;2.12;88.83;101418.50;5015833;28;20207;-69
2022/01/16 01:42:16;;;;;;;21.93;11.90;;;;;;;2.11;88.30;101374.72;5016390;28;20586;-70
2022/01/16 01:52:57;;;;;;;21.03;12.47;;;;;;;2.02;89.26;101316.16;4988127;28;20199;-69
2022/01/16 01:55:24;;;;;;;18.63;11.53;;;;;;;2.01;89.35;101319.69;5011064;28;20213;-69
2022/01/16 01:57:51;;;;;;;21.50;12.17;;;;;;;2.00;88.76;101345.97;5011245;28;20207;-70
2022/01/16 02:00:19;;;;;;;21.90;11.33;;;;;;;2.00;88.79;101357.34;5008791;28;20579;-69
2022/01/16 02:02:59;;;;;;;20.73;11.53;;;;;;;2.00;89.01;101362.59;5009689;28;20652;-69
2022/01/16 02:08:12;;;;;;;21.97;11.50;;;;;;;1.97;89.48;101357.41;5028341;28;20237;-69
2022/01/16 02:10:41;;;;;;;21.20;12.20;;;;;;;1.96;89.17;101341.69;5029067;28;20227;-71
2022/01/16 02:13:16;;;;;;;20.23;11.73;;;;;;;1.95;89.68;101353.97;5032379;28;20282;-70
2022/01/16 02:30:12;;;;;;;18.77;11.20;;;;;;;1.89;90.30;101348.81;5030261;28;20209;-71
2022/01/16 02:35:09;;;;;;;21.23;10.87;;;;;;;1.84;90.17;101368.16;5023531;28;20212;-72
2022/01/16 02:37:36;;;;;;;23.87;12.40;;;;;;;1.83;90.80;101351.53;5021908;28;20256;-70
2022/01/16 02:40:13;;;;;;;21.07;11.83;;;;;;;1.82;90.30;101349.78;5035320;28;20213;-70
2022/01/16 02:42:44;;;;;;;19.87;11.27;;;;;;;1.82;90.55;101356.78;5030187;28;20210;-70
2022/01/16 02:45:17;;;;;;;18.73;12.00;;;;;;;1.82;90.62;101362.03;5022902;28;20214;-70
2022/01/16 02:47:43;;;;;;;19.53;10.33;;;;;;;1.81;91.08;101353.28;5028340;28;20226;-71
2022/01/16 02:50:11;;;;;;;18.67;10.67;;;;;;;1.82;91.06;101347.16;5027724;28;20675;-72
2022/01/16 02:52:37;;;;;;;18.37;11.47;;;;;;;1.82;90.86;101343.66;5038013;28;20722;-69
2022/01/16 02:55:06;;;;;;;17.27;9.70;;;;;;;1.81;91.37;101331.41;5028825;28;20595;-71
2022/01/16 02:57:35;;;;;;;17.87;10.33;;;;;;;1.82;91.42;101325.28;5027332;28;20221;-70
2022/01/16 03:00:03;;;;;;;16.40;10.10;;;;;;;1.82;91.20;101323.50;5034771;28;20206;-70
2022/01/16 03:02:30;;;;;;;16.33;10.20;;;;;;;1.82;90.81;101320.88;5032158;28;20206;-71
2022/01/16 03:04:56;;;;;;;14.10;9.20;;;;;;;1.83;91.64;101329.63;5023567;28;20213;-71
2022/01/16 03:07:23;;;;;;;18.57;10.40;;;;;;;1.82;91.84;101326.16;5026617;28;20602;-71
2022/01/16 03:10:11;;;;;;;18.93;9.83;;;;;;;1.82;91.38;101323.50;5029094;28;20206;-70
2022/01/16 03:12:39;;;;;;;14.33;9.00;;;;;;;1.82;91.46;101315.63;5020479;28;20279;-71
2022/01/16 03:15:06;;;;;;;15.40;10.07;;;;;;;1.82;91.73;101307.75;5024290;28;20212;-70
2022/01/16 03:17:39;;;;;;;15.53;9.17;;;;;;;1.81;91.12;101303.41;5022876;28;20230;-71
2022/01/16 03:22:51;;;;;;;16.90;9.60;;;;;;;1.81;91.07;101303.41;5028068;28;20716;-72
2022/01/16 03:25:18;;;;;;;15.47;9.40;;;;;;;1.78;91.57;101292.09;5028444;28;20221;-71
2022/01/16 03:27:46;;;;;;;16.27;9.80;;;;;;;1.76;91.06;101288.63;5029216;28;20229;-70
2022/01/16 03:30:13;;;;;;;14.83;9.23;;;;;;;1.74;91.69;101296.53;5025157;28;20214;-70
2022/01/16 03:32:40;;;;;;;16.63;9.97;;;;;;;1.71;91.48;101296.59;5020204;28;20266;-69
2022/01/16 03:35:07;;;;;;;16.43;9.60;;;;;;;1.70;91.27;101295.72;5020868;28;20206;-71
2022/01/16 03:37:34;;;;;;;16.23;9.80;;;;;;;1.70;91.61;101294.84;5020384;28;20229;-70
2022/01/16 03:40:04;;;;;;;17.03;9.63;;;;;;;1.66;91.47;101294.03;5019595;28;20206;-71
2022/01/16 03:42:32;;;;;;;15.57;9.87;;;;;;;1.64;91.48;101287.06;5009022;28;20661;-70
2022/01/16 03:45:00;;;;;;;16.73;9.73;;;;;;;1.61;90.88;101285.34;5017676;28;20225;-72
2022/01/16 03:47:27;;;;;;;17.30;10.23;;;;;;;1.59;91.40;101273.16;5025988;28;20246;-71
2022/01/16 03:49:53;;;;;;;16.53;9.27;;;;;;;1.57;91.21;101281.06;5029439;28;20220;-71
2022/01/16 03:52:20;;;;;;;16.03;9.00;;;;;;;1.55;91.48;101279.34;5024135;28;20230;-71
2022/01/16 03:54:46;;;;;;;19.07;10.17;;;;;;;1.52;91.07;101274.16;5012671;28;20211;-70
2022/01/16 03:57:13;;;;;;;16.07;9.10;;;;;;;1.49;90.92;101280.31;5021138;28;20227;-70
2022/01/16 03:59:40;;;;;;;16.73;9.10;;;;;;;1.47;90.89;101278.59;5024059;28;20206;-71
2022/01/16 04:02:08;;;;;;;18.10;9.93;;;;;;;1.44;91.16;101276.00;5023424;28;20202;-71
2022/01/16 04:04:34;;;;;;;15.80;9.27;;;;;;;1.44;91.48;101287.38;5013830;28;20226;-71
2022/01/16 04:07:01;;;;;;;15.43;9.67;;;;;;;1.42;91.19;101297.06;4981978;28;1043631;-71
2022/01/16 04:09:28;;;;;;;14.30;9.13;;;;;;;1.40;91.48;101306.72;5013641;28;20230;-70
2022/01/16 04:11:56;;;;;;;15.10;9.37;;;;;;;1.41;91.71;101312.84;5020654;28;20587;-70
2022/01/16 04:15:31;;;;;;;16.43;9.30;;;;;;;1.38;91.30;101319.84;5017190;28;20740;-71
2022/01/16 04:17:14;;;;;;;15.80;8.80;;;;;;;1.36;91.06;101315.50;5020300;28;20237;-71
2022/01/16 04:19:40;;;;;;;13.57;8.20;;;;;;;1.34;91.01;101320.78;5024862;28;20919;-70
2022/01/16 04:22:07;;;;;;;11.30;7.03;;;;;;;1.33;91.11;101326.91;5031896;28;20206;-70
2022/01/16 04:24:33;;;;;;;12.57;7.57;;;;;;;1.30;91.02;101316.47;5040160;28;20752;-70
2022/01/16 04:27:00;;;;;;;10.97;7.00;;;;;;;1.29;91.55;101334.84;5032840;28;20233;-71
2022/01/16 04:29:27;;;;;;;10.60;7.13;;;;;;;1.27;91.47;101334.88;5033308;28;20222;-71
2022/01/16 04:31:54;;;;;;;9.27;6.43;;;;;;;1.25;91.89;101341.94;5033241;28;20233;-70
2022/01/16 04:34:21;;;;;;;9.97;6.23;;;;;;;1.24;92.11;101345.44;5025089;28;20792;-70
2022/01/16 04:36:48;;;;;;;9.13;5.53;;;;;;;1.28;92.16;101348.84;5041819;28;20226;-69
2022/01/16 04:39:18;;;;;;;9.57;5.70;;;;;;;1.29;92.29;101363.72;5041839;28;20221;-71
2022/01/16 04:44:28;;;;;;;9.80;6.20;;;;;;;1.33;92.08;101384.66;5019788;28;20299;-70
2022/01/16 04:46:55;;;;;;;10.53;6.40;;;;;;;1.35;92.55;101387.25;5027039;28;20222;-70
2022/01/16 04:49:23;;;;;;;12.07;7.33;;;;;;;1.34;92.39;101381.16;5031093;28;20217;-71
2022/01/16 04:51:50;;;;;;;11.10;7.07;;;;;;;1.35;92.57;101372.38;5036663;28;20230;-72
2022/01/16 04:54:17;;;;;;;11.47;6.80;;;;;;;1.36;92.96;101371.50;5021173;28;20211;-70
2022/01/16 04:56:43;;;;;;;13.50;7.60;;;;;;;1.37;93.04;101370.59;5018780;28;20226;-70
2022/01/16 04:59:10;;;;;;;12.93;7.90;;;;;;;1.36;93.33;101363.63;5015307;28;20217;-70
2022/01/16 05:01:37;;;;;;;13.60;8.20;;;;;;;1.36;93.31;101363.63;5032340;28;20224;-70
2022/01/16 05:04:04;;;;;;;13.43;8.30;;;;;;;1.37;93.44;101361.88;5034548;28;20210;-70
2022/01/16 05:06:31;;;;;;;14.00;7.77;;;;;;;1.38;93.49;101356.59;5026795;28;20234;-71
2022/01/16 05:08:58;;;;;;;13.03;7.13;;;;;;;1.39;93.19;101349.59;5042924;28;20202;-70
2022/01/16 05:11:26;;;;;;;13.10;7.70;;;;;;;1.41;93.75;101362.69;5035289;28;20222;-70
2022/01/16 05:16:36;;;;;;;11.20;7.03;;;;;;;1.42;93.10;101352.19;5038113;28;20722;-69
2022/01/16 05:19:03;;;;;;;12.13;7.17;;;;;;;1.45;93.58;101348.63;5044552;28;20202;-70
2022/01/16 05:21:31;;;;;;;10.17;6.67;;;;;;;1.42;93.79;101336.44;5031444;28;20681;-71
2022/01/16 05:23:58;;;;;;;11.90;8.00;;;;;;;1.42;93.67;101331.19;5036865;28;20209;-71
2022/01/16 05:26:27;;;;;;;11.57;6.73;;;;;;;1.44;93.88;101323.25;5041776;28;20734;-70
2022/01/16 05:28:54;;;;;;;8.73;5.13;;;;;;;1.45;93.26;101309.25;5030337;28;20202;-70
2022/01/16 05:31:21;;;;;;;9.13;6.30;;;;;;;1.43;93.22;101316.31;5036657;28;20233;-70
2022/01/16 05:33:48;;;;;;;9.80;5.93;;;;;;;1.42;93.32;101312.81;5041662;28;20663;-70
2022/01/16 05:36:14;;;;;;;10.03;6.10;;;;;;;1.43;93.21;101311.91;5031306;28;20249;-69
2022/01/16 05:38:43;;;;;;;10.23;6.60;;;;;;;1.43;93.58;101311.06;5022911;28;20207;-71
2022/01/16 05:41:09;;;;;;;9.70;7.13;;;;;;;1.41;93.42;101315.47;5039050;28;20209;-70
2022/01/16 05:43:36;;;;;;;9.93;6.53;;;;;;;1.42;93.59;101319.81;5040752;28;20204;-71
2022/01/16 05:46:02;;;;;;;9.20;6.10;;;;;;;1.42;93.75;101311.94;5029656;28;20237;-70
2022/01/16 05:48:29;;;;;;;9.57;6.73;;;;;;;1.42;93.24;101310.19;5030354;28;20210;-70
2022/01/16 05:50:55;;;;;;;8.73;5.90;;;;;;;1.44;93.40;101312.75;5046307;28;20201;-70
2022/01/16 05:53:22;;;;;;;8.03;5.57;;;;;;;1.44;93.56;101307.50;5038901;28;20719;-72
2022/01/16 05:55:50;;;;;;;7.03;5.87;;;;;;;1.43;93.40;101305.81;5033828;28;20206;-71
2022/01/16 05:58:16;;;;;;;8.57;6.27;;;;;;;1.43;93.50;101311.06;5035326;28;20672;-71
2022/01/16 06:00:44;;;;;;;10.93;6.43;;;;;;;1.42;93.28;101304.06;5027857;28;20656;-70
2022/01/16 06:03:10;;;;;;;8.83;6.30;;;;;;;1.42;93.37;101304.94;5024782;28;20203;-72
2022/01/16 06:05:37;;;;;;;10.97;6.60;;;;;;;1.45;93.26;101311.88;5020840;28;20434;-70
2022/01/16 06:08:09;;;;;;;10.00;6.23;;;;;;;1.46;93.21;101324.09;5022554;28;20221;-70
2022/01/16 06:10:36;;;;;;;11.17;7.13;;;;;;;1.44;93.38;101318.88;5026594;28;20207;-73
2022/01/16 06:13:05;;;;;;;9.83;7.07;;;;;;;1.47;93.13;101329.34;5020327;28;20233;-70
2022/01/16 06:15:32;;;;;;;10.83;7.73;;;;;;;1.47;93.23;101321.47;5016495;28;20230;-72
2022/01/16 06:18:00;;;;;;;9.33;6.63;;;;;;;1.47;93.48;101324.09;5022108;28;20234;-70
2022/01/16 06:20:27;;;;;;;9.87;7.13;;;;;;;1.48;93.08;101320.56;5028169;28;20292;-70
2022/01/16 06:22:54;;;;;;;11.33;7.87;;;;;;;1.47;93.46;101324.09;5024767;28;20198;-71
2022/01/16 06:25:21;;;;;;;12.27;8.97;;;;;;;1.47;93.41;101317.97;5026078;28;20256;-71
2022/01/16 06:27:47;;;;;;;10.83;8.53;;;;;;;1.50;93.84;101325.78;5026773;28;20235;-70
2022/01/16 06:30:16;;;;;;;12.73;8.93;;;;;;;1.49;93.25;101318.81;5023975;28;20631;-71
2022/01/16 06:32:43;;;;;;;14.93;10.30;;;;;;;1.45;93.34;101309.25;5014486;28;20257;-72
2022/01/16 06:35:11;;;;;;;16.47;9.63;;;;;;;1.47;93.10;101304.84;5027189;28;20260;-71
2022/01/16 06:37:38;;;;;;;13.87;9.63;;;;;;;1.50;92.93;101303.03;5029064;28;20230;-70
2022/01/16 06:40:06;;;;;;;13.83;9.27;;;;;;;1.50;92.64;101300.41;5025844;28;20206;-70
2022/01/16 06:42:32;;;;;;;13.77;9.27;;;;;;;1.50;93.20;101310.06;5026444;28;20202;-70
2022/01/16 06:44:59;;;;;;;14.50;9.50;;;;;;;1.49;93.22;101303.94;5026321;28;20206;-70
2022/01/16 06:47:27;;;;;;;14.47;9.47;;;;;;;1.45;92.66;101309.25;5027401;28;20233;-70
2022/01/16 06:49:54;;;;;;;16.07;10.77;;;;;;;1.47;93.10;101320.59;5018409;28;20237;-73
2022/01/16 06:52:20;;;;;;;16.47;9.90;;;;;;;1.46;92.73;101314.47;5022894;28;20231;-71
2022/01/16 06:54:47;;;;;;;17.30;10.00;;;;;;;1.47;92.34;101323.22;5026116;28;20206;-71
2022/01/16 06:57:13;;;;;;;16.97;10.47;;;;;;;1.49;92.79;101319.69;5024772;28;20233;-71
2022/01/16 06:59:40;;;;;;;16.13;9.90;;;;;;;1.48;92.84;101317.94;5025849;28;20209;-71
2022/01/16 07:02:06;;;;;;;16.43;9.87;;;;;;;1.45;92.39;101310.09;5017636;28;20206;-71
2022/01/16 07:04:34;;;;;;;20.27;11.80;;;;;;;1.47;92.03;101313.59;5032998;28;20575;-71
2022/01/16 07:07:01;;;;;;;20.23;12.13;;;;;;;1.45;92.16;101314.50;5026531;28;20237;-72
2022/01/16 07:09:27;;;;;;;18.43;11.03;;;;;;;1.44;92.16;101312.75;5030882;28;20217;-70
2022/01/16 07:11:54;;;;;;;21.93;12.43;;;;;;;1.41;92.30;101321.56;5029599;28;20210;-70
2022/01/16 07:14:20;;;;;;;22.17;12.87;;;;;;;1.42;92.47;101327.69;5026636;28;20676;-71
2022/01/16 07:16:47;;;;;;;24.67;12.87;;;;;;;1.44;92.40;101323.25;5026207;28;20233;-70
2022/01/16 07:19:13;;;;;;;20.90;12.27;;;;;;;1.45;92.16;101325.00;5018420;28;20207;-70
2022/01/16 07:21:41;;;;;;;26.30;14.57;;;;;;;1.44;92.26;101326.75;5020511;28;20265;-71
2022/01/16 07:24:08;;;;;;;23.83;12.43;;;;;;;1.44;92.58;101334.63;5024787;28;20841;-71
2022/01/16 07:26:35;;;;;;;24.27;13.63;;;;;;;1.46;92.11;101334.59;5023318;28;20246;-71
2022/01/16 07:29:01;;;;;;;30.77;13.47;;;;;;;1.47;91.96;101347.72;5018573;28;20211;-72
2022/01/16 07:31:28;;;;;;;27.27;13.60;;;;;;;1.50;92.26;101350.28;5015599;28;20858;-71
2022/01/16 07:33:56;;;;;;;28.50;14.87;;;;;;;1.53;92.34;101349.38;5025713;28;20229;-71
2022/01/16 07:36:22;;;;;;;29.67;14.70;;;;;;;1.55;92.38;101358.09;5038782;28;20234;-70
2022/01/16 07:38:50;;;;;;;28.80;15.27;;;;;;;1.53;91.97;101365.13;5017835;28;20210;-71
2022/01/16 07:41:17;;;;;;;32.57;14.33;;;;;;;1.54;92.62;101374.75;5025581;28;20217;-70
2022/01/16 07:43:43;;;;;;;28.87;16.47;;;;;;;1.54;92.82;101364.25;5016003;28;20206;-70
2022/01/16 07:46:09;;;;;;;32.13;15.93;;;;;;;1.55;92.18;101364.22;5019581;28;20237;-70
2022/01/16 07:48:36;;;;;;;31.13;15.87;;;;;;;1.57;92.62;101372.06;5018913;28;20207;-71
2022/01/16 07:51:04;;;;;;;32.93;15.67;;;;;;;1.59;92.73;101375.56;5019566;28;20210;-71
2022/01/16 07:53:30;;;;;;;34.53;16.37;;;;;;;1.61;92.80;101387.75;5022304;28;21026;-70
2022/01/16 07:55:58;;;;;;;38.80;18.67;;;;;;;1.64;92.53;101363.19;5016055;28;20223;-71
2022/01/16 07:58:24;;;;;;;35.47;16.90;;;;;;;1.67;92.65;101373.66;5019956;28;20213;-69
2022/01/16 08:00:51;;;;;;;36.00;16.87;;;;;;;1.69;92.59;101383.25;5016090;28;20525;-70
2022/01/16 08:03:17;;;;;;;35.67;17.13;;;;;;;1.71;92.63;101370.09;5025573;28;20202;-70
2022/01/16 08:05:44;;;;;;;32.33;16.67;;;;;;;1.73;92.34;101381.47;5022883;28;20221;-70
2022/01/16 08:08:10;;;;;;;36.23;18.00;;;;;;;1.74;92.60;101386.69;5015850;28;20210;-71
2022/01/16 08:10:38;;;;;;;37.80;17.97;;;;;;;1.76;92.07;101388.41;5029746;28;20687;-71
2022/01/16 08:13:05;;;;;;;38.43;17.17;;;;;;;1.78;92.57;101387.50;5032833;28;20666;-70
2022/01/16 08:15:32;;;;;;;39.10;19.20;;;;;;;1.79;92.18;101388.38;5024136;28;20684;-70
2022/01/16 08:17:58;;;;;;;37.33;17.67;;;;;;;1.80;92.54;101387.47;5028888;28;20237;-70
2022/01/16 08:20:25;;;;;;;39.93;20.23;;;;;;;1.82;91.99;101389.19;5026173;28;20202;-70
2022/01/16 08:22:52;;;;;;;41.80;19.70;;;;;;;1.84;92.10;101376.03;5022272;28;20202;-69
2022/01/16 08:25:18;;;;;;;42.03;20.43;;;;;;;1.85;92.39;101373.38;5025692;28;20217;-71
2022/01/16 08:27:45;;;;;;;47.60;20.17;;;;;;;1.88;92.59;101377.72;5022161;28;20228;-71
2022/01/16 08:30:13;;;;;;;44.80;20.43;;;;;;;1.89;91.82;101374.19;5019992;28;20213;-69
2022/01/16 08:32:43;;;;;;;44.30;20.03;;;;;;;1.91;91.94;101375.91;5019906;28;20230;-71
2022/01/16 08:35:10;;;;;;;46.47;20.20;;;;;;;1.92;92.62;101376.78;5022752;28;20215;-70
2022/01/16 08:37:37;;;;;;;47.70;21.10;;;;;;;1.94;92.30;101368.00;5020916;28;20222;-71
2022/01/16 08:40:04;;;;;;;44.73;21.67;;;;;;;1.95;92.65;101361.84;5024025;28;20214;-71
2022/01/16 08:42:31;;;;;;;48.03;21.60;;;;;;;1.95;92.30;101356.59;5029974;28;20236;-72
2022/01/16 08:44:57;;;;;;;42.13;20.23;;;;;;;1.97;92.56;101360.03;5021466;28;20207;-72
2022/01/16 08:47:26;;;;;;;42.93;21.03;;;;;;;1.99;91.95;101357.38;5020741;28;20606;-72
2022/01/16 08:49:53;;;;;;;49.97;22.73;;;;;;;1.98;92.45;101369.66;5021567;28;20226;-71
2022/01/16 08:52:21;;;;;;;52.93;22.70;;;;;;;1.99;91.79;101368.75;5017236;28;20206;-72
2022/01/16 08:54:48;;;;;;;39.00;20.57;;;;;;;1.98;91.78;101363.53;5028235;28;20288;-71
2022/01/16 08:57:15;;;;;;;49.70;21.70;;;;;;;1.99;92.22;101367.88;5025560;28;20597;-71
2022/01/16 08:59:42;;;;;;;45.27;21.40;;;;;;;2.01;92.39;101366.09;5025044;28;20587;-71
2022/01/16 09:02:08;;;;;;;40.03;19.60;;;;;;;2.03;92.00;101367.81;5019602;28;20203;-71
2022/01/16 09:04:36;;;;;;;41.03;20.60;;;;;;;2.05;91.73;101371.28;5024051;28;20205;-71
2022/01/16 09:07:03;;;;;;;37.03;18.87;;;;;;;2.02;91.88;101376.59;5018857;28;20245;-72
2022/01/16 09:09:31;;;;;;;35.03;19.37;;;;;;;2.02;92.47;101366.09;5022231;28;20199;-70
2022/01/16 09:11:58;;;;;;;39.73;20.30;;;;;;;2.04;92.30;101369.56;5021633;28;20293;-71
2022/01/16 09:14:24;;;;;;;36.93;18.50;;;;;;;2.06;91.49;101366.91;5024647;28;20241;-69
2022/01/16 09:16:51;;;;;;;38.70;19.37;;;;;;;2.07;91.86;101376.53;5022696;28;20219;-71
2022/01/16 09:19:18;;;;;;;38.23;19.13;;;;;;;2.13;91.81;101372.94;5019982;28;20686;-72
2022/01/16 09:21:45;;;;;;;36.80;19.90;;;;;;;2.11;91.84;101375.59;5032896;28;20217;-70
2022/01/16 09:24:12;;;;;;;38.40;20.03;;;;;;;2.12;91.52;101376.44;5031639;28;20285;-72
2022/01/16 09:26:39;;;;;;;38.87;21.27;;;;;;;2.14;91.50;101374.66;5027512;28;20229;-71
2022/01/16 09:29:05;;;;;;;39.20;20.33;;;;;;;2.14;91.36;101379.94;5032272;28;20224;-70
2022/01/16 09:31:32;;;;;;;43.03;20.97;;;;;;;2.14;91.84;101372.91;5026294;28;20202;-70
2022/01/16 09:33:59;;;;;;;39.70;19.63;;;;;;;2.14;91.49;101375.53;5031979;28;20238;-72
2022/01/16 09:36:26;;;;;;;40.57;19.60;;;;;;;2.15;91.27;101358.00;5030176;28;20765;-71
2022/01/16 09:38:55;;;;;;;44.07;21.40;;;;;;;2.18;91.55;101355.31;5027685;28;20206;-70
2022/01/16 09:41:22;;;;;;;42.47;21.33;;;;;;;2.19;91.25;101357.91;5024401;28;21089;-70
2022/01/16 09:43:49;;;;;;;53.83;24.43;;;;;;;2.19;91.05;101365.78;5025649;28;20209;-71
2022/01/16 09:46:15;;;;;;;43.60;22.37;;;;;;;2.21;91.73;101360.50;5025984;28;20241;-72
2022/01/16 09:48:43;;;;;;;52.00;23.43;;;;;;;2.21;91.32;101365.75;5024150;28;20210;-74
2022/01/16 09:51:10;;;;;;;49.83;23.47;;;;;;;2.19;91.75;101360.53;5025515;28;20202;-73
2022/01/16 09:53:37;;;;;;;50.63;22.70;;;;;;;2.21;91.46;101365.75;5019909;28;20234;-69
2022/01/16 09:56:05;;;;;;;50.20;23.63;;;;;;;2.22;91.02;101370.13;5021170;28;20233;-71
2022/01/16 09:58:33;;;;;;;44.13;20.50;;;;;;;2.24;91.64;101358.69;5023785;28;20197;-73
2022/01/16 10:01:00;;;;;;;45.57;21.70;;;;;;;2.29;91.25;101367.38;5024641;28;20589;-70
2022/01/16 10:03:34;;;;;;;48.90;23.40;;;;;;;2.31;91.09;101373.47;5022446;28;20255;-71
2022/01/16 10:06:10;;;;;;;51.70;22.57;;;;;;;2.34;91.85;101380.41;5020806;28;20230;-71
2022/01/16 10:08:37;;;;;;;51.93;23.60;;;;;;;2.35;91.42;101379.53;5018194;28;20221;-72
2022/01/16 10:11:21;;;;;;;44.00;19.57;;;;;;;2.38;91.17;101382.97;5012440;28;20206;-71
2022/01/16 10:13:58;;;;;;;48.70;21.43;;;;;;;2.38;91.47;101374.22;5016326;28;20230;-72
2022/01/16 10:16:26;;;;;;;50.17;24.03;;;;;;;2.40;91.36;101377.69;5016024;28;20793;-71
2022/01/16 10:18:53;;;;;;;51.43;22.67;;;;;;;2.39;91.97;101368.94;5023467;28;20199;-71
2022/01/16 10:21:33;;;;;;;43.77;20.20;;;;;;;2.40;91.99;101373.28;5020936;28;20214;-72
2022/01/16 10:23:59;;;;;;;52.67;23.90;;;;;;;2.42;91.54;101371.50;5018869;28;20211;-71
2022/01/16 10:26:28;;;;;;;46.80;21.17;;;;;;;2.43;92.05;101368.00;5012472;28;20232;-72
2022/01/16 10:28:54;;;;;;;52.67;24.53;;;;;;;2.45;91.64;101367.97;5018464;28;20668;-71
2022/01/16 10:31:25;;;;;;;49.17;24.37;;;;;;;2.47;92.09;101371.44;5026108;28;20694;-71
2022/01/16 10:33:54;;;;;;;54.50;27.57;;;;;;;2.49;91.50;101374.03;5023916;28;20226;-71
2022/01/16 10:36:34;;;;;;;66.27;24.23;;;;;;;2.50;92.39;101368.75;5018969;28;20230;-73
2022/01/16 10:39:06;;;;;;;52.93;24.03;;;;;;;2.54;92.43;101373.03;5026468;28;20217;-71
2022/01/16 10:41:34;;;;;;;46.03;23.73;;;;;;;2.55;91.65;101363.38;5025423;28;20206;-72
2022/01/16 10:44:01;;;;;;;50.07;23.83;;;;;;;2.56;92.13;101370.38;5017347;28;20757;-71
2022/01/16 10:46:27;;;;;;;35.83;17.57;;;;;;;2.58;92.54;101355.44;5029961;28;20225;-72
2022/01/16 10:49:12;;;;;;;54.60;23.07;;;;;;;2.58;92.62;101372.09;5028959;28;20216;-71
2022/01/16 10:51:38;;;;;;;52.13;26.17;;;;;;;2.61;92.02;101358.00;5023766;28;20202;-72
2022/01/16 10:54:29;;;;;;;54.77;25.03;;;;;;;2.62;92.55;101358.00;5022284;28;20223;-71
2022/01/16 10:56:57;;;;;;;54.43;24.47;;;;;;;2.65;92.38;101357.94;5018049;28;20225;-73
2022/01/16 10:59:24;;;;;;;47.60;23.20;;;;;;;2.68;93.09;101363.13;5015492;28;20587;-71
2022/01/16 11:02:07;;;;;;;46.43;22.87;;;;;;;2.69;92.59;101364.84;5017819;28;20211;-71
2022/01/16 11:04:33;;;;;;;48.77;25.23;;;;;;;2.72;92.31;101364.78;5021416;28;20205;-70
2022/01/16 11:07:01;;;;;;;48.20;25.73;;;;;;;2.74;93.30;101356.88;5024286;28;20237;-71
2022/01/16 11:09:29;;;;;;;51.00;23.33;;;;;;;2.74;92.72;101362.13;5030014;28;20854;-70
2022/01/16 11:11:59;;;;;;;47.47;22.40;;;;;;;2.75;92.88;101354.22;5025189;28;20313;-70
2022/01/16 11:14:26;;;;;;;55.17;27.87;;;;;;;2.78;93.44;101356.78;5028547;28;20221;-70
2022/01/16 11:16:54;;;;;;;49.40;23.57;;;;;;;2.82;93.18;101348.84;5026508;28;20227;-70
2022/01/16 11:19:21;;;;;;;63.30;31.40;;;;;;;2.84;93.59;101352.31;5017518;28;20241;-70
2022/01/16 11:21:51;;;;;;;55.27;27.93;;;;;;;2.87;93.63;101352.22;5031073;28;20300;-70
2022/01/16 11:24:33;;;;;;;45.23;22.03;;;;;;;2.92;92.91;101347.75;5027188;28;20286;-70
2022/01/16 11:27:01;;;;;;;55.50;25.87;;;;;;;2.92;93.57;101360.91;5022372;28;20283;-70
2022/01/16 11:29:29;;;;;;;53.93;25.90;;;;;;;2.95;92.86;101358.22;5032460;28;20316;-69
2022/01/16 11:31:57;;;;;;;47.60;23.80;;;;;;;2.98;93.59;101355.50;5033541;28;20202;-68
2022/01/16 11:34:23;;;;;;;49.50;23.53;;;;;;;3.00;92.75;101353.72;5019773;28;20235;-69
2022/01/16 11:36:51;;;;;;;47.60;24.80;;;;;;;3.00;93.62;101346.69;5033185;28;20469;-69
2022/01/16 11:39:17;;;;;;;45.93;24.07;;;;;;;3.04;93.19;101344.88;5035206;28;20216;-69
2022/01/16 11:41:53;;;;;;;51.07;25.70;;;;;;;3.04;93.36;101352.78;5021579;28;20666;-68
2022/01/16 11:44:27;;;;;;;50.67;25.23;;;;;;;3.04;92.81;101360.66;5018003;28;20579;-69
2022/01/16 11:46:56;;;;;;;50.40;23.90;;;;;;;3.08;93.45;101359.66;5022882;28;20605;-69
2022/01/16 11:49:32;;;;;;;50.50;26.53;;;;;;;3.08;93.39;101357.03;5018104;28;20659;-69
2022/01/16 11:52:07;;;;;;;51.63;25.50;;;;;;;3.07;93.32;101340.38;5018730;28;20209;-69
2022/01/16 11:54:35;;;;;;;48.97;24.13;;;;;;;3.13;93.28;101347.28;5022245;28;20220;-69
2022/01/16 11:57:19;;;;;;;40.33;21.23;;;;;;;3.14;93.60;101343.75;5022214;28;20264;-69
2022/01/16 11:59:48;;;;;;;47.00;23.43;;;;;;;3.15;92.87;101334.97;5027493;28;20210;-68
2022/01/16 12:02:21;;;;;;;45.73;23.83;;;;;;;3.17;93.82;101334.94;5013503;28;20683;-69